sensor_id;sensor_type;location;lat;lon;timestamp;pressure;altitude;pressure_sealevel;temperature;humidity
69772;BME280;57046;45.988;18.664;2023-04-07T00:02:16;100545.22;;;7.05;55.72
69772;BME280;57046;45.988;18.664;2023-04-07T00:04:41;100539.97;;;7.14;55.42
69772;BME280;57046;45.988;18.664;2023-04-07T00:07:07;100552.91;;;7.12;54.74
69772;BME280;57046;45.988;18.664;2023-04-07T00:09:32;100534.47;;;7.05;55.18
69772;BME280;57046;45.988;18.664;2023-04-07T00:11:58;100542.25;;;7.07;55.47
69772;BME280;57046;45.988;18.664;2023-04-07T00:14:23;100539.97;;;7.14;55.42
69772;BME280;57046;45.988;18.664;2023-04-07T00:16:48;100542.09;;;6.98;56.24
69772;BME280;57046;45.988;18.664;2023-04-07T00:19:14;100540.44;;;7.02;56.71
69772;BME280;57046;45.988;18.664;2023-04-07T00:21:39;100541.59;;;6.96;56.72
69772;BME280;57046;45.988;18.664;2023-04-07T00:24:04;100526.56;;;6.95;56.94
69772;BME280;57046;45.988;18.664;2023-04-07T00:26:30;100508.53;;;6.82;57.20
69772;BME280;57046;45.988;18.664;2023-04-07T00:28:56;100528.03;;;6.88;57.31
69772;BME280;57046;45.988;18.664;2023-04-07T00:31:21;100535.44;;;6.96;57.05
69772;BME280;57046;45.988;18.664;2023-04-07T00:33:46;100530.28;;;6.99;57.20
69772;BME280;57046;45.988;18.664;2023-04-07T00:36:12;100535.75;;;7.08;57.17
69772;BME280;57046;45.988;18.664;2023-04-07T00:38:37;100529.91;;;7.06;57.29
69772;BME280;57046;45.988;18.664;2023-04-07T00:41:02;100530.97;;;7.05;57.26
69772;BME280;57046;45.988;18.664;2023-04-07T00:43:28;100525.81;;;7.08;57.43
69772;BME280;57046;45.988;18.664;2023-04-07T00:45:53;100532.19;;;7.12;57.84
69772;BME280;57046;45.988;18.664;2023-04-07T00:48:19;100523.72;;;7.05;57.67
69772;BME280;57046;45.988;18.664;2023-04-07T00:50:45;100526.34;;;7.10;58.06
69772;BME280;57046;45.988;18.664;2023-04-07T00:53:11;100530.09;;;7.09;57.64
69772;BME280;57046;45.988;18.664;2023-04-07T00:55:36;100521.63;;;7.02;57.74
69772;BME280;57046;45.988;18.664;2023-04-07T00:58:02;100518.66;;;7.04;57.69
69772;BME280;57046;45.988;18.664;2023-04-07T01:00:27;100524.31;;;7.02;58.16
69772;BME280;57046;45.988;18.664;2023-04-07T01:03:09;100513.25;;;6.90;58.16
69772;BME280;57046;45.988;18.664;2023-04-07T01:05:57;100521.56;;;7.07;58.10
69772;BME280;57046;45.988;18.664;2023-04-07T01:11:19;100519.63;;;7.08;58.16
69772;BME280;57046;45.988;18.664;2023-04-07T01:13:49;100517.16;;;7.11;58.27
69772;BME280;57046;45.988;18.664;2023-04-07T01:16:34;100519.47;;;7.18;58.08
69772;BME280;57046;45.988;18.664;2023-04-07T01:19:50;100519.25;;;7.14;58.23
69772;BME280;57046;45.988;18.664;2023-04-07T01:21:57;100503.69;;;6.98;59.12
69772;BME280;57046;45.988;18.664;2023-04-07T01:29:59;100505.59;;;6.97;59.56
69772;BME280;57046;45.988;18.664;2023-04-07T01:32:26;100515.03;;;6.95;59.21
69772;BME280;57046;45.988;18.664;2023-04-07T01:34:53;100507.06;;;6.90;59.64
69772;BME280;57046;45.988;18.664;2023-04-07T01:37:20;100504.81;;;6.78;60.38
69772;BME280;57046;45.988;18.664;2023-04-07T01:39:46;100510.84;;;6.89;60.25
69772;BME280;57046;45.988;18.664;2023-04-07T01:42:12;100513.03;;;6.87;59.90
69772;BME280;57046;45.988;18.664;2023-04-07T01:44:39;100517.28;;;6.88;60.42
69772;BME280;57046;45.988;18.664;2023-04-07T01:47:05;100519.97;;;6.88;60.19
69772;BME280;57046;45.988;18.664;2023-04-07T01:49:30;100516.09;;;6.80;60.17
69772;BME280;57046;45.988;18.664;2023-04-07T01:51:56;100518.19;;;6.83;60.13
69772;BME280;57046;45.988;18.664;2023-04-07T01:54:22;100516.50;;;6.87;60.13
69772;BME280;57046;45.988;18.664;2023-04-07T01:56:48;100515.66;;;6.73;60.49
69772;BME280;57046;45.988;18.664;2023-04-07T01:59:13;100514.28;;;6.57;60.34
69772;BME280;57046;45.988;18.664;2023-04-07T02:01:39;100504.66;;;6.56;59.64
69772;BME280;57046;45.988;18.664;2023-04-07T02:04:34;100482.75;;;6.49;60.34
69772;BME280;57046;45.988;18.664;2023-04-07T02:07:07;100505.66;;;6.60;59.87
69772;BME280;57046;45.988;18.664;2023-04-07T02:09:35;100506.97;;;6.44;59.39
69772;BME280;57046;45.988;18.664;2023-04-07T02:12:04;100519.59;;;6.62;59.41
69772;BME280;57046;45.988;18.664;2023-04-07T02:14:32;100516.31;;;6.65;59.87
69772;BME280;57046;45.988;18.664;2023-04-07T02:16:58;100502.84;;;6.51;59.24
69772;BME280;57046;45.988;18.664;2023-04-07T02:19:25;100510.44;;;6.44;59.12
69772;BME280;57046;45.988;18.664;2023-04-07T02:21:51;100507.06;;;6.39;58.94
69772;BME280;57046;45.988;18.664;2023-04-07T02:24:20;100500.38;;;6.55;59.02
69772;BME280;57046;45.988;18.664;2023-04-07T02:26:45;100512.56;;;6.66;59.13
69772;BME280;57046;45.988;18.664;2023-04-07T02:29:10;100510.53;;;6.58;58.96
69772;BME280;57046;45.988;18.664;2023-04-07T02:31:36;100506.91;;;6.49;58.99
69772;BME280;57046;45.988;18.664;2023-04-07T02:34:01;100510.09;;;6.51;58.96
69772;BME280;57046;45.988;18.664;2023-04-07T02:36:26;100509.13;;;6.60;58.80
69772;BME280;57046;45.988;18.664;2023-04-07T02:38:52;100514.22;;;6.62;58.89
69772;BME280;57046;45.988;18.664;2023-04-07T02:41:17;100509.66;;;6.62;59.18
69772;BME280;57046;45.988;18.664;2023-04-07T02:43:42;100511.97;;;6.69;59.00
69772;BME280;57046;45.988;18.664;2023-04-07T02:46:08;100506.06;;;6.67;59.25
69772;BME280;57046;45.988;18.664;2023-04-07T02:48:33;100507.97;;;6.67;59.20
69772;BME280;57046;45.988;18.664;2023-04-07T02:50:58;100505.41;;;6.75;59.13
69772;BME280;57046;45.988;18.664;2023-04-07T02:53:24;100505.78;;;6.69;59.97
69772;BME280;57046;45.988;18.664;2023-04-07T02:55:49;100500.31;;;6.74;59.47
69772;BME280;57046;45.988;18.664;2023-04-07T02:58:14;100503.38;;;6.67;59.72
69772;BME280;57046;45.988;18.664;2023-04-07T03:00:40;100501.44;;;6.73;59.70
69772;BME280;57046;45.988;18.664;2023-04-07T03:03:05;100497.09;;;6.77;59.32
69772;BME280;57046;45.988;18.664;2023-04-07T03:05:30;100500.75;;;6.81;59.37
69772;BME280;57046;45.988;18.664;2023-04-07T03:07:56;100496.91;;;6.87;59.32
69772;BME280;57046;45.988;18.664;2023-04-07T03:10:21;100495.97;;;6.78;59.44
69772;BME280;57046;45.988;18.664;2023-04-07T03:12:47;100487.91;;;6.78;59.47
69772;BME280;57046;45.988;18.664;2023-04-07T03:15:13;100492.63;;;6.86;59.61
69772;BME280;57046;45.988;18.664;2023-04-07T03:17:38;100506.53;;;6.88;59.64
69772;BME280;57046;45.988;18.664;2023-04-07T03:20:04;100505.69;;;6.92;59.80
69772;BME280;57046;45.988;18.664;2023-04-07T03:22:30;100504.00;;;6.96;60.08
69772;BME280;57046;45.988;18.664;2023-04-07T03:24:55;100501.00;;;6.98;59.80
69772;BME280;57046;45.988;18.664;2023-04-07T03:27:20;100498.63;;;6.96;59.45
69772;BME280;57046;45.988;18.664;2023-04-07T03:29:46;100503.47;;;6.94;59.63
69772;BME280;57046;45.988;18.664;2023-04-07T03:32:11;100511.25;;;6.96;60.15
69772;BME280;57046;45.988;18.664;2023-04-07T03:34:36;100506.59;;;7.01;59.73
69772;BME280;57046;45.988;18.664;2023-04-07T03:37:02;100508.19;;;7.02;59.68
69772;BME280;57046;45.988;18.664;2023-04-07T03:39:27;100502.31;;;7.00;60.19
69772;BME280;57046;45.988;18.664;2023-04-07T03:41:53;100488.69;;;6.97;60.42
69772;BME280;57046;45.988;18.664;2023-04-07T03:44:18;100500.72;;;6.99;59.93
69772;BME280;57046;45.988;18.664;2023-04-07T03:46:43;100506.59;;;7.01;60.31
69772;BME280;57046;45.988;18.664;2023-04-07T03:49:08;100502.00;;;7.02;60.38
69772;BME280;57046;45.988;18.664;2023-04-07T03:51:34;100496.53;;;6.93;60.97
69772;BME280;57046;45.988;18.664;2023-04-07T03:53:59;100499.84;;;7.04;60.50
69772;BME280;57046;45.988;18.664;2023-04-07T03:56:24;100494.16;;;7.05;60.33
69772;BME280;57046;45.988;18.664;2023-04-07T03:58:50;100491.75;;;6.90;60.40
69772;BME280;57046;45.988;18.664;2023-04-07T04:01:15;100496.91;;;6.87;59.86
69772;BME280;57046;45.988;18.664;2023-04-07T04:03:41;100487.88;;;6.96;59.93
69772;BME280;57046;45.988;18.664;2023-04-07T04:06:06;100489.97;;;6.99;60.00
69772;BME280;57046;45.988;18.664;2023-04-07T04:08:32;100480.31;;;6.98;60.77
69772;BME280;57046;45.988;18.664;2023-04-07T04:10:57;100488.38;;;6.98;60.57
69772;BME280;57046;45.988;18.664;2023-04-07T04:13:22;100471.34;;;6.89;59.67
69772;BME280;57046;45.988;18.664;2023-04-07T04:15:48;100491.28;;;7.02;59.92
69772;BME280;57046;45.988;18.664;2023-04-07T04:18:13;100483.53;;;7.00;60.14
69772;BME280;57046;45.988;18.664;2023-04-07T04:20:38;100483.81;;;6.99;59.91
69772;BME280;57046;45.988;18.664;2023-04-07T04:23:04;100494.75;;;7.02;60.30
69772;BME280;57046;45.988;18.664;2023-04-07T04:25:29;100500.06;;;7.07;60.09
69772;BME280;57046;45.988;18.664;2023-04-07T04:27:54;100500.63;;;7.04;60.06
69772;BME280;57046;45.988;18.664;2023-04-07T04:30:20;100507.69;;;7.00;59.95
69772;BME280;57046;45.988;18.664;2023-04-07T04:32:45;100495.63;;;6.98;60.28
69772;BME280;57046;45.988;18.664;2023-04-07T04:35:10;100496.16;;;7.00;60.12
69772;BME280;57046;45.988;18.664;2023-04-07T04:37:36;100494.56;;;6.99;60.63
69772;BME280;57046;45.988;18.664;2023-04-07T04:40:01;100500.13;;;7.02;59.96
69772;BME280;57046;45.988;18.664;2023-04-07T04:42:26;100501.75;;;7.03;60.76
69772;BME280;57046;45.988;18.664;2023-04-07T04:44:52;100497.25;;;6.99;60.63
69772;BME280;57046;45.988;18.664;2023-04-07T04:47:17;100503.09;;;7.01;60.70
69772;BME280;57046;45.988;18.664;2023-04-07T04:49:43;100509.00;;;7.03;61.17
69772;BME280;57046;45.988;18.664;2023-04-07T04:52:08;100507.59;;;7.05;61.63
69772;BME280;57046;45.988;18.664;2023-04-07T04:54:33;100513.19;;;7.09;62.58
69772;BME280;57046;45.988;18.664;2023-04-07T04:56:59;100509.41;;;7.10;61.45
69772;BME280;57046;45.988;18.664;2023-04-07T04:59:24;100505.13;;;7.09;62.35
69772;BME280;57046;45.988;18.664;2023-04-07T05:01:50;100486.59;;;6.94;63.07
69772;BME280;57046;45.988;18.664;2023-04-07T05:04:15;100510.50;;;7.09;62.65
69772;BME280;57046;45.988;18.664;2023-04-07T05:06:41;100518.50;;;6.95;63.23
69772;BME280;57046;45.988;18.664;2023-04-07T05:09:06;100509.06;;;6.98;63.13
69772;BME280;57046;45.988;18.664;2023-04-07T05:11:32;100513.53;;;6.89;62.42
69772;BME280;57046;45.988;18.664;2023-04-07T05:13:57;100511.53;;;6.94;61.72
69772;BME280;57046;45.988;18.664;2023-04-07T05:16:23;100514.16;;;6.99;63.36
69772;BME280;57046;45.988;18.664;2023-04-07T05:18:48;100512.28;;;7.00;62.76
69772;BME280;57046;45.988;18.664;2023-04-07T05:21:13;100522.00;;;6.96;62.25
69772;BME280;57046;45.988;18.664;2023-04-07T05:23:38;100520.88;;;6.83;62.78
69772;BME280;57046;45.988;18.664;2023-04-07T05:26:04;100532.09;;;6.85;63.39
69772;BME280;57046;45.988;18.664;2023-04-07T05:28:29;100527.88;;;6.98;63.16
69772;BME280;57046;45.988;18.664;2023-04-07T05:30:54;100530.19;;;7.04;64.40
69772;BME280;57046;45.988;18.664;2023-04-07T05:33:20;100525.91;;;7.03;62.81
69772;BME280;57046;45.988;18.664;2023-04-07T05:35:45;100532.09;;;7.04;63.31
69772;BME280;57046;45.988;18.664;2023-04-07T05:38:11;100537.91;;;6.92;63.14
69772;BME280;57046;45.988;18.664;2023-04-07T05:40:36;100540.44;;;7.02;63.37
69772;BME280;57046;45.988;18.664;2023-04-07T05:43:02;100533.78;;;6.81;63.79
69772;BME280;57046;45.988;18.664;2023-04-07T05:45:27;100549.25;;;6.89;63.54
69772;BME280;57046;45.988;18.664;2023-04-07T05:47:53;100543.22;;;6.97;64.11
69772;BME280;57046;45.988;18.664;2023-04-07T05:50:18;100536.84;;;6.75;64.60
69772;BME280;57046;45.988;18.664;2023-04-07T05:52:43;100546.03;;;6.87;65.74
69772;BME280;57046;45.988;18.664;2023-04-07T05:55:09;100560.63;;;7.00;65.54
69772;BME280;57046;45.988;18.664;2023-04-07T05:57:35;100550.53;;;6.92;65.36
69772;BME280;57046;45.988;18.664;2023-04-07T06:00:00;100560.63;;;7.00;65.28
69772;BME280;57046;45.988;18.664;2023-04-07T06:02:26;100573.69;;;7.06;66.72
69772;BME280;57046;45.988;18.664;2023-04-07T06:04:51;100576.97;;;6.85;68.54
69772;BME280;57046;45.988;18.664;2023-04-07T06:07:16;100574.91;;;6.63;71.70
69772;BME280;57046;45.988;18.664;2023-04-07T06:09:42;100579.47;;;6.62;74.48
69772;BME280;57046;45.988;18.664;2023-04-07T06:12:07;100592.22;;;6.52;76.45
69772;BME280;57046;45.988;18.664;2023-04-07T06:14:33;100590.97;;;6.26;79.23
69772;BME280;57046;45.988;18.664;2023-04-07T06:16:58;100592.91;;;6.20;79.68
69772;BME280;57046;45.988;18.664;2023-04-07T06:19:23;100591.72;;;6.07;80.80
69772;BME280;57046;45.988;18.664;2023-04-07T06:21:49;100581.94;;;5.93;82.25
69772;BME280;57046;45.988;18.664;2023-04-07T06:24:14;100586.13;;;5.75;83.37
69772;BME280;57046;45.988;18.664;2023-04-07T06:26:39;100585.06;;;5.76;83.62
69772;BME280;57046;45.988;18.664;2023-04-07T06:29:05;100592.06;;;5.72;84.59
69772;BME280;57046;45.988;18.664;2023-04-07T06:31:30;100578.72;;;5.67;84.98
69772;BME280;57046;45.988;18.664;2023-04-07T06:33:55;100577.41;;;5.36;86.49
69772;BME280;57046;45.988;18.664;2023-04-07T06:36:21;100595.72;;;5.57;86.51
69772;BME280;57046;45.988;18.664;2023-04-07T06:38:46;100601.44;;;5.46;88.13
69772;BME280;57046;45.988;18.664;2023-04-07T06:41:11;100604.09;;;5.51;87.73
69772;BME280;57046;45.988;18.664;2023-04-07T06:43:37;100607.78;;;5.55;88.27
69772;BME280;57046;45.988;18.664;2023-04-07T06:46:02;100599.97;;;5.58;88.01
69772;BME280;57046;45.988;18.664;2023-04-07T06:48:28;100569.13;;;5.37;88.03
69772;BME280;57046;45.988;18.664;2023-04-07T06:50:53;100604.53;;;5.58;88.02
69772;BME280;57046;45.988;18.664;2023-04-07T06:53:19;100610.31;;;5.70;87.76
69772;BME280;57046;45.988;18.664;2023-04-07T06:55:44;100611.97;;;5.66;88.19
69772;BME280;57046;45.988;18.664;2023-04-07T06:58:09;100609.72;;;5.49;88.74
69772;BME280;57046;45.988;18.664;2023-04-07T07:00:35;100616.91;;;5.54;89.19
69772;BME280;57046;45.988;18.664;2023-04-07T07:03:00;100610.22;;;5.51;89.62
69772;BME280;57046;45.988;18.664;2023-04-07T07:05:26;100618.81;;;5.53;89.84
69772;BME280;57046;45.988;18.664;2023-04-07T07:07:51;100621.16;;;5.60;90.90
69772;BME280;57046;45.988;18.664;2023-04-07T07:10:17;100609.75;;;5.44;90.70
69772;BME280;57046;45.988;18.664;2023-04-07T07:12:42;100619.88;;;5.52;91.21
69772;BME280;57046;45.988;18.664;2023-04-07T07:15:08;100616.59;;;5.60;91.66
69772;BME280;57046;45.988;18.664;2023-04-07T07:17:33;100619.44;;;5.69;90.47
69772;BME280;57046;45.988;18.664;2023-04-07T07:19:59;100622.34;;;6.25;100.00
69772;BME280;57046;45.988;18.664;2023-04-07T07:22:24;100623.81;;;5.89;91.34
69772;BME280;57046;45.988;18.664;2023-04-07T07:24:49;100623.06;;;6.12;98.18
69772;BME280;57046;45.988;18.664;2023-04-07T07:27:15;100629.16;;;6.18;93.37
69772;BME280;57046;45.988;18.664;2023-04-07T07:29:40;100635.13;;;6.09;91.28
69772;BME280;57046;45.988;18.664;2023-04-07T07:32:05;100629.03;;;6.28;91.84
69772;BME280;57046;45.988;18.664;2023-04-07T07:34:31;100625.50;;;6.08;90.37
69772;BME280;57046;45.988;18.664;2023-04-07T07:36:56;100631.03;;;6.17;88.74
69772;BME280;57046;45.988;18.664;2023-04-07T07:39:22;100635.66;;;6.11;89.85
69772;BME280;57046;45.988;18.664;2023-04-07T07:41:47;100631.03;;;6.17;89.37
69772;BME280;57046;45.988;18.664;2023-04-07T07:44:12;100636.81;;;6.29;87.66
69772;BME280;57046;45.988;18.664;2023-04-07T07:46:38;100606.03;;;5.98;88.16
69772;BME280;57046;45.988;18.664;2023-04-07T07:49:03;100639.31;;;6.21;87.71
69772;BME280;57046;45.988;18.664;2023-04-07T07:51:28;100646.38;;;6.35;87.72
69772;BME280;57046;45.988;18.664;2023-04-07T07:53:54;100641.38;;;6.29;87.30
69772;BME280;57046;45.988;18.664;2023-04-07T07:56:19;100658.06;;;6.44;85.85
69772;BME280;57046;45.988;18.664;2023-04-07T07:58:44;100655.81;;;6.33;86.75
69772;BME280;57046;45.988;18.664;2023-04-07T08:01:10;100648.09;;;6.26;85.82
69772;BME280;57046;45.988;18.664;2023-04-07T08:03:35;100650.66;;;6.36;86.04
69772;BME280;57046;45.988;18.664;2023-04-07T08:06:00;100651.22;;;6.33;86.15
69772;BME280;57046;45.988;18.664;2023-04-07T08:08:26;100641.28;;;6.34;86.53
69772;BME280;57046;45.988;18.664;2023-04-07T08:10:51;100656.38;;;6.30;85.54
69772;BME280;57046;45.988;18.664;2023-04-07T08:13:16;100650.88;;;6.40;85.50
69772;BME280;57046;45.988;18.664;2023-04-07T08:15:42;100653.34;;;6.36;85.54
69772;BME280;57046;45.988;18.664;2023-04-07T08:18:07;100653.50;;;6.45;85.56
69772;BME280;57046;45.988;18.664;2023-04-07T08:20:33;100647.56;;;6.48;85.96
69772;BME280;57046;45.988;18.664;2023-04-07T08:22:59;100651.63;;;6.45;86.43
69772;BME280;57046;45.988;18.664;2023-04-07T08:25:24;100648.50;;;6.57;87.55
69772;BME280;57046;45.988;18.664;2023-04-07T08:27:49;100649.09;;;6.54;85.27
69772;BME280;57046;45.988;18.664;2023-04-07T08:30:15;100652.31;;;6.56;85.42
69772;BME280;57046;45.988;18.664;2023-04-07T08:32:41;100658.88;;;6.45;84.68
69772;BME280;57046;45.988;18.664;2023-04-07T08:35:07;100653.38;;;6.55;85.38
69772;BME280;57046;45.988;18.664;2023-04-07T08:37:33;100657.31;;;6.62;85.81
69772;BME280;57046;45.988;18.664;2023-04-07T08:39:59;100649.75;;;6.64;84.34
69772;BME280;57046;45.988;18.664;2023-04-07T08:42:28;100630.88;;;6.51;84.89
69772;BME280;57046;45.988;18.664;2023-04-07T08:44:56;100653.03;;;6.61;84.80
69772;BME280;57046;45.988;18.664;2023-04-07T08:47:22;100637.63;;;6.67;84.54
69772;BME280;57046;45.988;18.664;2023-04-07T08:49:51;100652.84;;;6.77;84.58
69772;BME280;57046;45.988;18.664;2023-04-07T08:52:17;100661.44;;;6.74;84.17
69772;BME280;57046;45.988;18.664;2023-04-07T08:54:46;100654.50;;;6.73;84.46
69772;BME280;57046;45.988;18.664;2023-04-07T08:57:12;100646.84;;;6.61;84.48
69772;BME280;57046;45.988;18.664;2023-04-07T08:59:40;100660.38;;;6.75;83.81
69772;BME280;57046;45.988;18.664;2023-04-07T09:02:05;100641.47;;;6.61;83.46
69772;BME280;57046;45.988;18.664;2023-04-07T09:04:31;100614.91;;;6.41;83.66
69772;BME280;57046;45.988;18.664;2023-04-07T09:06:56;100651.44;;;6.79;83.33
69772;BME280;57046;45.988;18.664;2023-04-07T09:09:21;100659.41;;;6.65;81.95
69772;BME280;57046;45.988;18.664;2023-04-07T09:11:47;100639.81;;;6.65;83.26
69772;BME280;57046;45.988;18.664;2023-04-07T09:14:12;100657.53;;;6.66;82.47
69772;BME280;57046;45.988;18.664;2023-04-07T09:16:38;100657.81;;;6.64;81.76
69772;BME280;57046;45.988;18.664;2023-04-07T09:19:03;100640.31;;;6.67;81.42
69772;BME280;57046;45.988;18.664;2023-04-07T09:21:51;100623.78;;;6.60;80.83
69772;BME280;57046;45.988;18.664;2023-04-07T09:24:24;100656.88;;;6.74;80.31
69772;BME280;57046;45.988;18.664;2023-04-07T09:26:50;100661.94;;;6.57;80.40
69772;BME280;57046;45.988;18.664;2023-04-07T09:29:18;100668.22;;;6.47;81.11
69772;BME280;57046;45.988;18.664;2023-04-07T09:31:48;100652.25;;;6.37;81.12
69772;BME280;57046;45.988;18.664;2023-04-07T09:34:29;100663.50;;;6.63;80.93
69772;BME280;57046;45.988;18.664;2023-04-07T09:36:56;100680.94;;;6.60;81.91
69772;BME280;57046;45.988;18.664;2023-04-07T09:39:23;100677.47;;;6.60;81.78
69772;BME280;57046;45.988;18.664;2023-04-07T09:41:49;100668.56;;;6.64;81.17
69772;BME280;57046;45.988;18.664;2023-04-07T09:44:15;100672.75;;;6.71;81.55
69772;BME280;57046;45.988;18.664;2023-04-07T09:46:52;100640.22;;;6.53;81.13
69772;BME280;57046;45.988;18.664;2023-04-07T09:49:19;100671.06;;;6.80;81.79
69772;BME280;57046;45.988;18.664;2023-04-07T09:51:56;100677.09;;;6.90;81.57
69772;BME280;57046;45.988;18.664;2023-04-07T09:54:37;100638.38;;;6.73;81.93
69772;BME280;57046;45.988;18.664;2023-04-07T09:57:05;100670.69;;;6.86;80.69
69772;BME280;57046;45.988;18.664;2023-04-07T09:59:34;100658.84;;;6.87;81.50
69772;BME280;57046;45.988;18.664;2023-04-07T10:02:01;100673.94;;;7.02;81.16
69772;BME280;57046;45.988;18.664;2023-04-07T10:04:27;100675.41;;;6.94;80.61
69772;BME280;57046;45.988;18.664;2023-04-07T10:06:54;100647.59;;;6.85;79.97
69772;BME280;57046;45.988;18.664;2023-04-07T10:09:26;100680.28;;;7.11;80.05
69772;BME280;57046;45.988;18.664;2023-04-07T10:11:53;100656.81;;;6.98;79.40
69772;BME280;57046;45.988;18.664;2023-04-07T10:14:22;100673.69;;;7.03;80.22
69772;BME280;57046;45.988;18.664;2023-04-07T10:16:50;100677.78;;;7.14;79.76
69772;BME280;57046;45.988;18.664;2023-04-07T10:19:18;100668.72;;;7.29;80.53
69772;BME280;57046;45.988;18.664;2023-04-07T10:21:44;100674.31;;;7.33;81.79
69772;BME280;57046;45.988;18.664;2023-04-07T10:24:35;100669.78;;;7.28;80.52
69772;BME280;57046;45.988;18.664;2023-04-07T10:27:09;100668.66;;;7.34;80.39
69772;BME280;57046;45.988;18.664;2023-04-07T10:29:41;100668.75;;;7.43;80.74
69772;BME280;57046;45.988;18.664;2023-04-07T10:32:08;100671.66;;;7.46;81.60
69772;BME280;57046;45.988;18.664;2023-04-07T10:37:16;100672.34;;;7.71;80.88
69772;BME280;57046;45.988;18.664;2023-04-07T10:39:42;100672.09;;;7.99;90.22
69772;BME280;57046;45.988;18.664;2023-04-07T10:45:06;100675.47;;;7.91;80.22
69772;BME280;57046;45.988;18.664;2023-04-07T10:47:32;100638.69;;;7.41;79.77
69772;BME280;57046;45.988;18.664;2023-04-07T10:50:18;100675.44;;;7.78;80.27
69772;BME280;57046;45.988;18.664;2023-04-07T10:52:46;100667.66;;;7.76;81.94
69772;BME280;57046;45.988;18.664;2023-04-07T11:03:35;100695.50;;;7.85;80.94
69772;BME280;57046;45.988;18.664;2023-04-07T11:06:08;100678.94;;;7.78;81.49
69772;BME280;57046;45.988;18.664;2023-04-07T11:11:04;100684.13;;;7.75;84.95
69772;BME280;57046;45.988;18.664;2023-04-07T11:13:42;100678.13;;;7.78;81.46
69772;BME280;57046;45.988;18.664;2023-04-07T11:16:09;100674.09;;;8.21;83.29
69772;BME280;57046;45.988;18.664;2023-04-07T11:18:35;100678.38;;;7.95;81.72
69772;BME280;57046;45.988;18.664;2023-04-07T11:21:02;100675.69;;;7.95;80.75
69772;BME280;57046;45.988;18.664;2023-04-07T11:23:29;100675.91;;;7.66;81.96
69772;BME280;57046;45.988;18.664;2023-04-07T11:25:59;100676.13;;;7.69;82.06
69772;BME280;57046;45.988;18.664;2023-04-07T11:28:25;100661.25;;;7.58;80.91
69772;BME280;57046;45.988;18.664;2023-04-07T11:30:52;100683.78;;;7.76;82.38
69772;BME280;57046;45.988;18.664;2023-04-07T11:33:24;100685.50;;;7.72;81.22
69772;BME280;57046;45.988;18.664;2023-04-07T11:35:54;100677.19;;;8.01;82.07
69772;BME280;57046;45.988;18.664;2023-04-07T11:38:21;100670.91;;;7.92;81.62
69772;BME280;57046;45.988;18.664;2023-04-07T11:40:47;100668.06;;;7.83;81.52
69772;BME280;57046;45.988;18.664;2023-04-07T11:43:24;100676.28;;;8.05;84.38
69772;BME280;57046;45.988;18.664;2023-04-07T11:46:10;100639.63;;;7.96;82.35
69772;BME280;57046;45.988;18.664;2023-04-07T11:48:37;100676.38;;;8.00;79.86
69772;BME280;57046;45.988;18.664;2023-04-07T11:51:03;100667.81;;;7.98;79.38
69772;BME280;57046;45.988;18.664;2023-04-07T11:53:34;100669.91;;;8.01;80.16
69772;BME280;57046;45.988;18.664;2023-04-07T11:56:09;100610.91;;;7.91;86.54
69772;BME280;57046;45.988;18.664;2023-04-07T11:58:35;100682.97;;;8.08;78.75
69772;BME280;57046;45.988;18.664;2023-04-07T12:01:05;100687.47;;;8.12;78.98
69772;BME280;57046;45.988;18.664;2023-04-07T12:03:32;100678.47;;;8.17;80.13
69772;BME280;57046;45.988;18.664;2023-04-07T12:05:59;100672.31;;;8.16;79.71
69772;BME280;57046;45.988;18.664;2023-04-07T12:08:41;100681.50;;;8.15;79.72
69772;BME280;57046;45.988;18.664;2023-04-07T12:11:07;100683.88;;;9.43;100.00
69772;BME280;57046;45.988;18.664;2023-04-07T12:13:34;100683.41;;;9.41;82.70
69772;BME280;57046;45.988;18.664;2023-04-07T12:15:59;100672.38;;;8.93;80.33
69772;BME280;57046;45.988;18.664;2023-04-07T12:18:25;100682.50;;;8.74;83.89
69772;BME280;57046;45.988;18.664;2023-04-07T12:20:50;100683.09;;;8.57;81.33
69772;BME280;57046;45.988;18.664;2023-04-07T12:23:15;100678.72;;;9.33;97.82
69772;BME280;57046;45.988;18.664;2023-04-07T12:25:41;100684.19;;;8.70;82.79
69772;BME280;57046;45.988;18.664;2023-04-07T12:28:06;100676.03;;;8.34;83.16
69772;BME280;57046;45.988;18.664;2023-04-07T12:30:31;100671.00;;;8.14;82.71
69772;BME280;57046;45.988;18.664;2023-04-07T12:32:57;100685.47;;;8.18;82.83
69772;BME280;57046;45.988;18.664;2023-04-07T12:35:22;100685.19;;;8.19;84.58
69772;BME280;57046;45.988;18.664;2023-04-07T12:37:48;100678.28;;;8.13;84.69
69772;BME280;57046;45.988;18.664;2023-04-07T12:40:13;100693.28;;;7.87;84.98
69772;BME280;57046;45.988;18.664;2023-04-07T12:42:38;100692.19;;;7.75;84.01
69772;BME280;57046;45.988;18.664;2023-04-07T12:45:04;100689.81;;;7.87;83.85
69772;BME280;57046;45.988;18.664;2023-04-07T12:47:30;100690.22;;;7.94;84.80
69772;BME280;57046;45.988;18.664;2023-04-07T12:49:55;100682.94;;;7.94;85.24
69772;BME280;57046;45.988;18.664;2023-04-07T12:52:20;100689.94;;;7.95;84.75
69772;BME280;57046;45.988;18.664;2023-04-07T12:54:46;100686.53;;;7.90;83.35
69772;BME280;57046;45.988;18.664;2023-04-07T12:57:11;100691.31;;;7.93;84.06
69772;BME280;57046;45.988;18.664;2023-04-07T12:59:36;100688.25;;;7.99;84.48
69772;BME280;57046;45.988;18.664;2023-04-07T13:02:02;100691.31;;;8.06;84.22
69772;BME280;57046;45.988;18.664;2023-04-07T13:04:27;100696.41;;;7.94;83.65
69772;BME280;57046;45.988;18.664;2023-04-07T13:06:53;100696.31;;;7.99;84.36
69772;BME280;57046;45.988;18.664;2023-04-07T13:09:18;100684.16;;;8.02;84.44
69772;BME280;57046;45.988;18.664;2023-04-07T13:11:43;100695.94;;;8.06;83.08
69772;BME280;57046;45.988;18.664;2023-04-07T13:14:09;100688.63;;;8.06;83.89